Time;durP1;ratioP1;P1;durP2;ratioP2;P2;SDS_P1;SDS_P2;PMS_P1;PMS_P2;Temp;Humidity;BMP_temperature;BMP_pressure;BME280_temperature;BME280_humidity;BME280_pressure;Samples;Min_cycle;Max_cycle;Signal;HPM_P1;HPM_P2
2021/12/30 00:00:59;;;;;;;39.30;18.95;;;6.50;99.90;;;;;;4982748;28;20022;-70
2021/12/30 00:03:25;;;;;;;41.35;17.35;;;;;;;;;;4987056;28;20077;-73
2021/12/30 00:05:52;;;;;;;34.50;17.52;;;6.40;99.90;;;;;;4987773;28;20023;-71
2021/12/30 00:08:19;;;;;;;39.00;18.13;;;7.70;99.90;;;;;;4987296;28;20031;-71
2021/12/30 00:10:45;;;;;;;34.72;17.30;;;6.40;99.90;;;;;;4982105;28;20029;-70
2021/12/30 00:13:11;;;;;;;34.40;18.05;;;6.40;99.90;;;;;;4980472;28;20023;-69
2021/12/30 00:15:37;;;;;;;37.53;17.23;;;6.50;99.90;;;;;;4988680;28;20042;-71
2021/12/30 00:18:04;;;;;;;28.95;16.60;;;6.40;99.90;;;;;;4975918;28;20022;-71
2021/12/30 00:20:30;;;;;;;32.40;17.13;;;6.40;99.90;;;;;;4985071;28;20034;-71
2021/12/30 00:22:55;;;;;;;34.70;17.70;;;6.40;99.90;;;;;;4983457;28;20022;-71
2021/12/30 00:25:21;;;;;;;30.30;16.42;;;6.40;99.90;;;;;;4979004;28;20428;-72
2021/12/30 00:27:47;;;;;;;31.42;16.38;;;;;;;;;;4976354;28;20034;-72
2021/12/30 00:30:13;;;;;;;36.38;16.90;;;6.40;99.90;;;;;;4987938;28;20106;-70
2021/12/30 00:32:40;;;;;;;31.98;16.73;;;6.10;99.90;;;;;;4980739;28;20539;-70
2021/12/30 00:35:06;;;;;;;33.08;17.55;;;6.30;99.90;;;;;;4984353;28;20026;-70
2021/12/30 00:37:32;;;;;;;30.33;17.08;;;6.40;99.90;;;;;;4969095;28;20041;-73
2021/12/30 00:39:57;;;;;;;30.08;17.00;;;6.30;99.90;;;;;;4965223;28;20113;-71
2021/12/30 00:42:23;;;;;;;32.08;17.70;;;6.30;99.90;;;;;;4972008;28;20042;-71
2021/12/30 00:44:48;;;;;;;28.40;17.58;;;6.40;99.90;;;;;;4975108;28;20046;-72
2021/12/30 00:47:14;;;;;;;29.45;16.95;;;6.40;99.90;;;;;;4985447;28;20470;-71
2021/12/30 00:49:40;;;;;;;34.33;17.50;;;6.40;99.90;;;;;;4958256;28;20027;-74
2021/12/30 00:52:05;;;;;;;29.25;16.10;;;6.30;99.90;;;;;;4981902;28;20073;-71
2021/12/30 00:54:31;;;;;;;25.92;17.20;;;6.50;99.90;;;;;;4984683;28;20026;-71
2021/12/30 00:56:57;;;;;;;29.13;16.00;;;6.60;99.90;;;;;;4982548;28;20038;-73
2021/12/30 00:59:22;;;;;;;24.25;16.45;;;6.40;99.90;;;;;;4978417;28;20035;-71
2021/12/30 01:01:48;;;;;;;25.55;15.63;;;6.60;99.90;;;;;;4970298;28;20501;-72
2021/12/30 01:04:13;;;;;;;25.80;16.50;;;6.60;99.90;;;;;;4974082;28;20102;-71
2021/12/30 01:06:39;;;;;;;26.35;16.50;;;7.40;99.90;;;;;;4980067;28;20219;-69
2021/12/30 01:09:05;;;;;;;23.48;15.30;;;6.70;99.90;;;;;;4971519;28;20030;-69
2021/12/30 01:11:31;;;;;;;21.42;15.57;;;6.70;99.90;;;;;;4971306;28;20015;-69
2021/12/30 01:14:03;;;;;;;24.33;16.27;;;6.70;99.90;;;;;;4972332;28;20037;-70
2021/12/30 01:16:30;;;;;;;21.80;15.30;;;6.70;99.90;;;;;;4982904;28;20109;-70
2021/12/30 01:19:04;;;;;;;24.67;15.90;;;7.00;99.90;;;;;;4981391;28;20030;-69
2021/12/30 01:21:33;;;;;;;19.77;14.80;;;6.80;99.90;;;;;;4976229;28;20126;-71
2021/12/30 01:24:00;;;;;;;25.25;15.32;;;6.80;99.90;;;;;;4988420;28;20058;-71
2021/12/30 01:26:26;;;;;;;23.30;15.68;;;6.80;99.90;;;;;;4977967;28;20049;-69
2021/12/30 01:28:53;;;;;;;23.15;15.82;;;6.80;99.90;;;;;;4973027;28;20033;-70
2021/12/30 01:31:19;;;;;;;21.02;15.05;;;6.80;99.90;;;;;;4974221;28;20035;-71
2021/12/30 01:33:47;;;;;;;25.48;15.88;;;6.80;99.90;;;;;;4988397;28;20058;-71
2021/12/30 01:36:13;;;;;;;22.95;14.40;;;6.80;99.90;;;;;;4976244;28;20113;-73
2021/12/30 01:38:40;;;;;;;21.52;15.38;;;6.80;99.90;;;;;;4987977;28;20457;-71
2021/12/30 01:41:09;;;;;;;18.30;14.98;;;7.10;99.90;;;;;;4980084;28;20039;-70
2021/12/30 01:43:36;;;;;;;22.98;14.40;;;6.80;99.90;;;;;;4988368;28;20034;-73
2021/12/30 01:46:06;;;;;;;20.20;14.77;;;6.80;99.90;;;;;;4973611;28;20073;-72
2021/12/30 01:48:32;;;;;;;17.42;15.48;;;7.10;99.90;;;;;;4979191;28;20027;-69
2021/12/30 01:50:58;;;;;;;20.05;15.38;;;6.70;99.90;;;;;;4980913;28;20433;-70
2021/12/30 01:53:24;;;;;;;26.27;15.63;;;6.60;99.90;;;;;;4985995;28;20026;-71
2021/12/30 01:55:50;;;;;;;18.55;15.45;;;6.60;99.90;;;;;;4974002;28;20106;-72
2021/12/30 01:58:16;;;;;;;26.73;15.20;;;6.60;99.90;;;;;;4280714;28;10000798;-71
2021/12/30 02:00:45;;;;;;;23.98;16.60;;;6.50;99.90;;;;;;4968189;28;20047;-70
2021/12/30 02:03:12;;;;;;;24.88;15.55;;;6.50;99.90;;;;;;4968132;28;20019;-69
2021/12/30 02:05:38;;;;;;;26.48;15.68;;;6.50;99.90;;;;;;4969216;28;20051;-71
2021/12/30 02:08:07;;;;;;;23.25;15.38;;;6.40;99.90;;;;;;4969143;28;20397;-72
2021/12/30 02:10:33;;;;;;;25.73;15.00;;;6.40;99.90;;;;;;4967966;28;20031;-72
2021/12/30 02:12:58;;;;;;;23.00;14.82;;;6.30;99.90;;;;;;4967100;28;20162;-71
2021/12/30 02:15:24;;;;;;;25.85;14.73;;;6.40;99.90;;;;;;4956909;28;20035;-71
2021/12/30 02:17:51;;;;;;;26.48;16.27;;;6.50;99.90;;;;;;4970986;28;20042;-73
2021/12/30 02:20:39;;;;;;;19.42;14.75;;;6.50;99.90;;;;;;4617243;28;10000117;-71
2021/12/30 02:23:05;;;;;;;22.25;13.65;;;6.60;99.90;;;;;;4978392;28;20489;-73
2021/12/30 02:25:31;;;;;;;26.63;15.25;;;6.60;99.90;;;;;;4974327;28;20045;-73
2021/12/30 02:27:56;;;;;;;22.88;14.90;;;6.60;99.90;;;;;;4979775;28;20030;-73
2021/12/30 02:30:22;;;;;;;22.65;14.60;;;;;;;;;;5015735;23;20611;-75
2021/12/30 02:32:48;;;;;;;22.77;14.88;;;6.80;99.90;;;;;;4993839;28;20054;-74
2021/12/30 02:35:13;;;;;;;22.27;15.65;;;6.80;99.90;;;;;;4995144;28;20084;-75
2021/12/30 02:37:39;;;;;;;21.83;15.27;;;6.90;99.90;;;;;;4994571;28;20034;-74
2021/12/30 02:40:06;;;;;;;22.13;15.35;;;;;;;;;;4994892;28;20038;-75
2021/12/30 02:42:32;;;;;;;27.48;16.67;;;6.80;99.90;;;;;;4995240;28;20473;-74
2021/12/30 02:44:57;;;;;;;23.90;15.02;;;6.30;99.90;;;;;;4997323;28;20088;-74
2021/12/30 02:47:23;;;;;;;20.65;15.70;;;;;;;;;;4999847;28;20040;-74
2021/12/30 02:49:49;;;;;;;24.90;16.50;;;6.70;99.90;;;;;;4995166;28;20049;-74
2021/12/30 02:52:15;;;;;;;27.88;17.30;;;6.70;99.90;;;;;;5006704;28;20033;-73
2021/12/30 02:54:42;;;;;;;25.00;16.05;;;6.70;99.90;;;;;;4998368;28;20026;-74
2021/12/30 02:57:09;;;;;;;29.20;17.90;;;7.60;99.90;;;;;;4994402;28;20031;-75
2021/12/30 02:59:35;;;;;;;30.70;17.73;;;;;;;;;;4994441;28;20038;-74
2021/12/30 03:02:01;;;;;;;36.13;18.63;;;;;;;;;;4994489;28;20081;-74
2021/12/30 03:04:26;;;;;;;31.65;18.55;;;6.70;99.90;;;;;;4993243;28;20041;-74
2021/12/30 03:06:53;;;;;;;31.80;16.77;;;6.70;99.90;;;;;;4992801;28;20042;-74
2021/12/30 03:09:19;;;;;;;29.75;17.73;;;6.60;99.90;;;;;;4992926;28;20026;-74
2021/12/30 03:11:44;;;;;;;32.65;18.45;;;6.60;99.90;;;;;;4994403;28;20041;-74
2021/12/30 03:14:10;;;;;;;36.35;18.48;;;;;;;;;;4993013;28;20081;-74
2021/12/30 03:16:37;;;;;;;34.05;19.67;;;;;;;;;;4993847;28;20068;-75
2021/12/30 03:19:03;;;;;;;34.55;17.63;;;6.70;99.90;;;;;;4994033;28;20022;-73
2021/12/30 03:21:29;;;;;;;36.28;19.27;;;;;;;;;;4993288;28;20030;-74
2021/12/30 03:23:58;;;;;;;33.28;17.35;;;6.70;99.90;;;;;;4992512;28;20087;-75
2021/12/30 03:26:24;;;;;;;27.98;16.58;;;6.70;99.90;;;;;;4993310;28;20030;-74
2021/12/30 03:28:50;;;;;;;31.67;16.92;;;6.60;99.90;;;;;;4992224;28;20125;-73
2021/12/30 03:31:18;;;;;;;35.85;18.73;;;6.60;99.90;;;;;;4993551;28;20078;-73
2021/12/30 03:33:44;;;;;;;28.65;17.02;;;6.80;99.90;;;;;;4993846;28;20102;-74
2021/12/30 03:36:11;;;;;;;32.78;17.92;;;6.70;99.90;;;;;;4991482;28;20084;-73
2021/12/30 03:38:40;;;;;;;33.25;17.42;;;6.70;99.90;;;;;;4993392;28;20022;-73
2021/12/30 03:41:08;;;;;;;33.83;17.30;;;6.70;99.90;;;;;;4993467;28;20030;-74
2021/12/30 03:43:35;;;;;;;29.67;16.38;;;6.70;99.90;;;;;;4993476;28;20023;-73
2021/12/30 03:46:00;;;;;;;27.75;16.77;;;6.80;99.90;;;;;;4993403;28;20040;-74
2021/12/30 03:48:33;;;;;;;28.95;15.88;;;6.80;99.90;;;;;;4991766;28;20485;-73
2021/12/30 03:51:05;;;;;;;19.08;13.65;;;6.80;99.90;;;;;;4993500;28;20514;-75
2021/12/30 03:53:31;;;;;;;25.60;17.30;;;;;;;;;;4993615;28;20046;-74
2021/12/30 03:55:56;;;;;;;23.65;15.63;;;6.90;99.90;;;;;;4992922;28;20034;-74
2021/12/30 03:58:22;;;;;;;29.33;15.27;;;7.10;99.90;;;;;;4992246;28;20037;-73
2021/12/30 04:00:47;;;;;;;26.02;15.48;;;6.90;99.90;;;;;;4993000;28;20027;-73
2021/12/30 04:03:13;;;;;;;21.15;14.93;;;;;;;;;;4993012;28;20030;-74
2021/12/30 04:05:39;;;;;;;23.90;15.27;;;;;;;;;;4992722;28;20018;-74
2021/12/30 04:08:07;;;;;;;23.30;15.57;;;7.10;99.90;;;;;;4992706;28;20472;-74
2021/12/30 04:10:34;;;;;;;26.08;15.25;;;;;;;;;;4992448;28;20014;-74
2021/12/30 04:13:00;;;;;;;26.85;15.50;;;7.10;99.90;;;;;;4992973;28;20550;-75
2021/12/30 04:15:25;;;;;;;23.52;15.30;;;7.20;99.90;;;;;;4992696;28;20026;-74
2021/12/30 04:17:51;;;;;;;20.52;13.82;;;7.40;99.90;;;;;;4992658;28;20026;-74
2021/12/30 04:20:17;;;;;;;32.53;14.93;;;;;;;;;;4992796;28;20026;-74
2021/12/30 04:22:43;;;;;;;39.15;16.52;;;;;;;;;;4992656;28;20046;-73
2021/12/30 04:25:13;;;;;;;36.65;15.40;;;7.50;99.90;;;;;;4992572;28;20461;-74
2021/12/30 04:27:39;;;;;;;48.55;17.33;;;;;;;;;;4992269;28;20112;-74
2021/12/30 04:30:06;;;;;;;49.92;16.42;;;7.50;99.90;;;;;;4992841;28;20209;-74
2021/12/30 04:32:32;;;;;;;37.28;16.13;;;7.60;99.90;;;;;;4992526;28;20038;-74
2021/12/30 04:34:57;;;;;;;47.08;19.50;;;7.60;99.90;;;;;;4992306;28;20029;-73
2021/12/30 04:37:23;;;;;;;52.60;18.60;;;;;;;;;;4992581;28;20046;-74
2021/12/30 04:39:49;;;;;;;54.78;19.20;;;;;;;;;;4991075;28;20034;-74
2021/12/30 04:42:15;;;;;;;48.65;19.02;;;7.70;99.90;;;;;;4992402;28;20030;-74
2021/12/30 04:44:43;;;;;;;57.78;21.10;;;7.70;99.90;;;;;;4992261;28;20046;-74
2021/12/30 04:47:09;;;;;;;63.15;20.05;;;7.70;99.90;;;;;;4992401;28;20033;-73
2021/12/30 04:49:35;;;;;;;63.13;21.02;;;7.80;99.90;;;;;;4992147;28;20484;-74
2021/12/30 04:52:00;;;;;;;55.03;20.00;;;7.90;99.90;;;;;;4991066;28;20496;-72
2021/12/30 04:54:26;;;;;;;58.30;21.58;;;7.60;99.90;;;;;;4991978;28;20030;-73
2021/12/30 04:56:51;;;;;;;66.82;20.70;;;7.90;99.90;;;;;;4991729;28;20101;-73
2021/12/30 04:59:17;;;;;;;67.47;21.65;;;;;;;;;;4992002;28;20030;-73
2021/12/30 05:01:43;;;;;;;69.57;23.40;;;;;;;;;;4992068;28;20484;-73
2021/12/30 05:04:09;;;;;;;66.05;22.92;;;;;;;;;;4998639;28;20037;-73
2021/12/30 05:06:36;;;;;;;88.30;23.75;;;8.10;99.90;;;;;;5001449;28;20034;-73
2021/12/30 05:09:03;;;;;;;61.92;21.13;;;8.00;99.90;;;;;;5001233;28;20466;-74
2021/12/30 05:11:29;;;;;;;68.00;21.42;;;;;;;;;;4999638;28;20022;-74
2021/12/30 05:13:54;;;;;;;64.60;22.40;;;8.10;99.90;;;;;;4999858;28;20026;-73
2021/12/30 05:16:20;;;;;;;69.03;23.15;;;7.90;99.90;;;;;;4994037;28;20264;-74
2021/12/30 05:18:48;;;;;;;68.35;23.60;;;8.00;99.90;;;;;;4992061;28;20053;-74
2021/12/30 05:21:14;;;;;;;66.03;23.75;;;;;;;;;;4991637;28;20038;-74
2021/12/30 05:23:40;;;;;;;72.50;24.73;;;;;;;;;;4991650;28;20034;-74
2021/12/30 05:26:06;;;;;;;76.18;24.20;;;8.10;99.90;;;;;;4991693;28;20108;-73
2021/12/30 05:28:31;;;;;;;82.80;23.02;;;8.20;99.90;;;;;;4991431;28;20058;-74
2021/12/30 05:30:57;;;;;;;80.20;24.55;;;8.10;99.90;;;;;;4990796;28;20034;-74
2021/12/30 05:33:23;;;;;;;78.53;24.55;;;;;;;;;;5010987;28;20357;-74
2021/12/30 05:35:49;;;;;;;77.25;24.08;;;8.30;99.90;;;;;;4993710;28;20018;-74
2021/12/30 05:38:17;;;;;;;73.25;25.08;;;8.40;99.90;;;;;;4991297;28;20477;-74
2021/12/30 05:40:43;;;;;;;62.95;24.20;;;;;;;;;;4996076;28;20097;-74
2021/12/30 05:43:09;;;;;;;79.82;23.35;;;8.40;99.90;;;;;;5009281;28;20034;-74
2021/12/30 05:45:34;;;;;;;66.18;22.20;;;8.40;99.90;;;;;;5001600;28;20112;-74
2021/12/30 05:48:00;;;;;;;89.32;25.25;;;;;;;;;;5001340;28;20026;-73
2021/12/30 05:50:28;;;;;;;77.82;25.25;;;8.30;99.90;;;;;;5000161;28;20033;-74
2021/12/30 05:52:54;;;;;;;64.95;23.95;;;8.40;99.90;;;;;;5001939;28;20022;-74
2021/12/30 05:55:21;;;;;;;65.30;23.85;;;8.20;99.90;;;;;;4994173;28;20496;-74
2021/12/30 05:57:47;;;;;;;71.65;22.80;;;;;;;;;;4994352;28;20038;-73
2021/12/30 06:00:15;;;;;;;66.57;23.88;;;8.40;99.90;;;;;;4994991;28;20456;-74
2021/12/30 06:02:41;;;;;;;77.05;23.33;;;;;;;;;;4995139;28;20117;-73
2021/12/30 06:05:07;;;;;;;58.88;22.60;;;;;;;;;;4995313;28;20072;-74
2021/12/30 06:07:33;;;;;;;59.78;23.08;;;;;;;;;;4994934;28;20084;-73
2021/12/30 06:09:59;;;;;;;71.32;23.73;;;;;;;;;;4995148;28;20022;-73
2021/12/30 06:12:25;;;;;;;56.60;23.10;;;8.60;99.90;;;;;;4994645;28;20037;-73
2021/12/30 06:14:50;;;;;;;63.88;22.27;;;8.50;99.90;;;;;;4995216;28;20041;-72
2021/12/30 06:17:16;;;;;;;56.35;21.65;;;;;;;;;;4994993;28;20034;-73
2021/12/30 06:19:43;;;;;;;59.08;22.85;;;8.60;99.90;;;;;;4993599;28;20034;-72
2021/12/30 06:22:12;;;;;;;69.45;23.70;;;8.50;99.90;;;;;;4995088;28;20038;-73
2021/12/30 06:24:38;;;;;;;63.03;20.80;;;8.60;99.90;;;;;;4994843;28;20081;-75
2021/12/30 06:27:04;;;;;;;55.97;20.58;;;;;;;;;;4994643;28;20459;-73
2021/12/30 06:29:30;;;;;;;64.57;22.77;;;;;;;;;;4996076;28;20014;-75
2021/12/30 06:31:55;;;;;;;58.25;22.25;;;8.60;99.90;;;;;;5000537;28;20085;-73
2021/12/30 06:34:21;;;;;;;65.43;22.15;;;8.60;99.90;;;;;;5001424;28;20033;-74
2021/12/30 06:36:47;;;;;;;58.25;20.55;;;8.50;99.90;;;;;;4997652;28;20030;-73
2021/12/30 06:39:13;;;;;;;60.40;21.33;;;;;;;;;;4999645;28;20034;-74
2021/12/30 06:41:38;;;;;;;64.88;22.23;;;9.00;99.90;;;;;;5000737;28;20034;-74
2021/12/30 06:44:05;;;;;;;54.20;20.25;;;;;;;;;;4994876;28;20035;-73
2021/12/30 06:46:31;;;;;;;66.97;21.67;;;;;;;;;;4992502;28;20492;-73
2021/12/30 06:48:57;;;;;;;44.15;18.92;;;;;;;;;;4989328;28;20361;-73
2021/12/30 06:51:26;;;;;;;49.55;20.17;;;;;;;;;;4996791;28;20015;-75
2021/12/30 06:53:54;;;;;;;56.47;18.50;;;;;;;;;;4993694;28;20040;-75
2021/12/30 06:56:21;;;;;;;69.03;20.73;;;8.30;99.90;;;;;;4998480;28;20021;-75
2021/12/30 06:58:47;;;;;;;60.03;20.70;;;;;;;;;;4998624;28;20129;-75
2021/12/30 07:01:13;;;;;;;71.75;22.92;;;;;;;;;;4993268;28;20080;-75
2021/12/30 07:03:39;;;;;;;51.28;20.48;;;;;;;;;;4999120;28;20493;-74
2021/12/30 07:06:07;;;;;;;60.05;19.67;;;;;;;;;;5004234;28;20567;-75
2021/12/30 07:08:32;;;;;;;65.20;21.75;;;;;;;;;;4989729;28;20484;-74
2021/12/30 07:10:58;;;;;;;62.53;19.38;;;8.10;99.90;;;;;;4989884;28;20026;-75
2021/12/30 07:13:24;;;;;;;64.65;20.42;;;;;;;;;;5004777;28;20057;-75
2021/12/30 07:15:50;;;;;;;59.72;19.55;;;;;;;;;;4993527;28;20073;-73
2021/12/30 07:18:16;;;;;;;63.45;19.50;;;;;;;;;;5002609;28;20392;-74
2021/12/30 07:20:42;;;;;;;64.13;19.35;;;;;;;;;;4994731;28;20030;-74
2021/12/30 07:23:07;;;;;;;61.05;20.95;;;8.00;99.90;;;;;;5000756;28;20044;-74
2021/12/30 07:25:33;;;;;;;57.22;21.50;;;;;;;;;;4992337;28;20041;-75
2021/12/30 07:28:01;;;;;;;56.15;18.88;;;;;;;;;;5005443;28;20392;-73
2021/12/30 07:30:27;;;;;;;62.95;19.70;;;8.10;99.90;;;;;;4993489;28;20026;-73
2021/12/30 07:32:53;;;;;;;72.38;21.02;;;8.30;99.90;;;;;;4991893;28;20080;-73
2021/12/30 07:35:21;;;;;;;60.90;19.60;;;8.30;99.90;;;;;;5001426;28;20483;-75
2021/12/30 07:37:48;;;;;;;65.55;20.45;;;8.30;99.90;;;;;;4993002;28;20050;-75
2021/12/30 07:40:15;;;;;;;63.83;18.83;;;;;;;;;;4994272;28;20058;-72
2021/12/30 07:42:41;;;;;;;64.35;19.35;;;;;;;;;;4997163;28;20039;-73
2021/12/30 07:45:09;;;;;;;54.17;17.30;;;8.50;99.90;;;;;;4993609;28;20031;-74
2021/12/30 07:47:35;;;;;;;62.00;20.73;;;;;;;;;;4992850;28;20050;-72
2021/12/30 07:50:01;;;;;;;61.75;18.10;;;;;;;;;;4993266;28;20550;-73
2021/12/30 07:52:27;;;;;;;48.17;18.13;;;;;;;;;;4996579;28;20116;-73
2021/12/30 07:54:53;;;;;;;63.78;18.33;;;;;;;;;;4992838;28;20110;-73
2021/12/30 08:00:19;;;;;;;45.72;16.42;;;8.50;99.90;;;;;;4999976;28;20088;-74
2021/12/30 08:02:45;;;;;;;64.40;16.20;;;;;;;;;;4998038;28;20034;-74
2021/12/30 08:05:12;;;;;;;58.60;16.20;;;8.60;99.90;;;;;;4998292;28;20063;-74
2021/12/30 08:07:38;;;;;;;51.38;16.38;;;8.70;99.90;;;;;;4998333;28;20030;-75
2021/12/30 08:10:10;;;;;;;58.75;17.67;;;8.60;99.90;;;;;;4992454;28;20042;-75
2021/12/30 08:12:37;;;;;;;55.25;17.35;;;;;;;;;;5001262;28;20502;-76
2021/12/30 08:15:03;;;;;;;61.83;19.00;;;8.50;99.90;;;;;;4999232;28;20038;-76
2021/12/30 08:17:29;;;;;;;54.53;17.08;;;8.70;99.90;;;;;;5000655;28;20492;-75
2021/12/30 08:19:54;;;;;;;66.20;21.02;;;;;;;;;;5007496;28;20054;-75
2021/12/30 08:22:20;;;;;;;54.10;18.15;;;;;;;;;;4995663;28;20049;-74
2021/12/30 08:24:46;;;;;;;58.55;16.50;;;;;;;;;;4997970;28;20121;-75
2021/12/30 08:27:13;;;;;;;47.67;16.75;;;8.90;99.90;;;;;;5000812;28;20036;-76
2021/12/30 08:32:22;;;;;;;42.17;15.93;;;9.00;99.90;;;;;;4979176;28;20069;-73
2021/12/30 08:34:48;;;;;;;53.85;15.38;;;9.00;99.90;;;;;;4987267;28;20038;-72
2021/12/30 08:37:15;;;;;;;65.20;17.38;;;9.20;99.90;;;;;;4987042;28;20511;-74
2021/12/30 08:39:42;;;;;;;45.08;15.23;;;9.10;99.90;;;;;;4987071;28;20030;-72
2021/12/30 08:42:26;;;;;;;50.70;16.73;;;9.10;99.90;;;;;;4993001;28;20021;-72
2021/12/30 08:44:53;;;;;;;52.28;14.77;;;9.10;99.90;;;;;;4997233;28;20511;-73
2021/12/30 08:47:19;;;;;;;48.90;15.32;;;;;;;;;;5002337;28;20041;-73
2021/12/30 08:49:46;;;;;;;55.35;17.45;;;;;;;;;;4988329;28;20027;-72
2021/12/30 08:52:14;;;;;;;38.92;14.18;;;9.30;99.90;;;;;;4992162;28;20026;-74
2021/12/30 08:54:40;;;;;;;51.05;14.48;;;;;;;;;;4998300;28;20022;-73
2021/12/30 08:57:06;;;;;;;40.35;15.00;;;;;;;;;;4999781;28;20036;-75
2021/12/30 08:59:32;;;;;;;55.60;16.35;;;9.30;99.90;;;;;;4991773;28;20034;-74
2021/12/30 09:01:58;;;;;;;51.83;14.73;;;;;;;;;;4981642;28;20026;-73
2021/12/30 09:04:24;;;;;;;44.42;15.43;;;;;;;;;;4994692;28;20034;-72
2021/12/30 09:06:49;;;;;;;40.17;13.93;;;9.30;99.90;;;;;;4995775;28;20110;-68
2021/12/30 09:09:15;;;;;;;45.55;14.98;;;9.50;99.90;;;;;;4989632;28;20088;-70
2021/12/30 09:11:40;;;;;;;38.83;15.30;;;9.30;99.90;;;;;;4993163;28;20350;-73
2021/12/30 09:14:06;;;;;;;43.42;14.52;;;9.30;99.90;;;;;;4992086;28;20022;-73
2021/12/30 09:16:32;;;;;;;30.10;13.90;;;9.30;99.90;;;;;;4998211;28;20108;-71
2021/12/30 09:18:58;;;;;;;48.75;15.05;;;9.30;99.90;;;;;;4987430;28;20034;-72
2021/12/30 09:21:23;;;;;;;55.50;14.63;;;9.40;99.90;;;;;;4993724;28;20106;-71
2021/12/30 09:23:49;;;;;;;44.03;15.73;;;9.40;99.90;;;;;;5003434;28;20400;-72
2021/12/30 09:26:14;;;;;;;39.67;13.75;;;9.40;99.90;;;;;;4993211;28;20693;-71
2021/12/30 09:28:40;;;;;;;29.15;13.27;;;9.50;99.90;;;;;;4999493;28;20029;-71
2021/12/30 09:31:06;;;;;;;38.65;13.38;;;9.50;99.90;;;;;;4991683;28;20065;-75
2021/12/30 09:33:32;;;;;;;31.08;14.27;;;9.50;99.90;;;;;;5007910;28;20470;-71
2021/12/30 09:36:00;;;;;;;42.10;14.32;;;9.70;99.90;;;;;;5003629;28;20022;-71
2021/12/30 09:38:25;;;;;;;33.30;12.98;;;9.60;99.90;;;;;;5005439;28;20033;-73
2021/12/30 09:40:51;;;;;;;32.13;12.75;;;9.70;99.90;;;;;;4996561;28;20238;-72
2021/12/30 09:43:17;;;;;;;31.67;12.63;;;9.70;99.90;;;;;;4996888;28;20031;-70
2021/12/30 09:45:43;;;;;;;42.45;14.25;;;9.80;99.90;;;;;;5008229;28;20391;-71
2021/12/30 09:48:12;;;;;;;31.88;12.50;;;9.70;99.90;;;;;;4995817;28;20072;-68
2021/12/30 09:50:44;;;;;;;29.38;12.57;;;7.40;99.90;;;;;;5001431;28;20104;-71
2021/12/30 09:53:11;;;;;;;28.42;12.82;;;9.70;99.90;;;;;;5002832;28;20026;-73
2021/12/30 09:55:37;;;;;;;27.17;11.80;;;9.70;99.90;;;;;;4995641;28;20415;-72
2021/12/30 09:58:04;;;;;;;23.33;11.07;;;9.70;99.90;;;;;;4996013;28;20052;-70
2021/12/30 10:00:31;;;;;;;36.63;12.30;;;9.60;99.90;;;;;;5004428;28;20053;-75
2021/12/30 10:02:56;;;;;;;34.92;11.63;;;9.70;99.90;;;;;;4999483;28;20041;-72
2021/12/30 10:05:28;;;;;;;41.72;12.52;;;9.70;99.90;;;;;;5003768;28;20022;-74
2021/12/30 10:08:09;;;;;;;24.13;11.52;;;9.70;99.90;;;;;;5000498;28;20104;-70
2021/12/30 10:10:38;;;;;;;28.90;11.38;;;9.70;99.90;;;;;;5012932;28;20105;-72
2021/12/30 10:13:33;;;;;;;33.83;11.35;;;9.80;99.90;;;;;;5004347;28;20024;-75
2021/12/30 10:16:02;;;;;;;34.03;12.38;;;9.70;99.90;;;;;;4994619;28;20033;-76
2021/12/30 10:18:44;;;;;;;30.15;10.52;;;10.40;99.90;;;;;;5017079;28;20029;-70
2021/12/30 10:21:25;;;;;;;29.50;10.93;;;9.90;99.90;;;;;;5012544;28;20152;-72
2021/12/30 10:23:56;;;;;;;25.17;10.48;;;9.90;99.90;;;;;;5030514;28;20023;-74
2021/12/30 10:26:22;;;;;;;28.95;10.85;;;;;;;;;;5020663;28;20045;-72
2021/12/30 10:28:51;;;;;;;26.98;9.75;;;9.80;99.90;;;;;;5033263;28;20040;-77
2021/12/30 10:31:20;;;;;;;24.85;10.30;;;9.90;99.90;;;;;;5014270;28;20028;-76
2021/12/30 10:33:50;;;;;;;25.02;10.07;;;9.90;99.90;;;;;;5029157;28;20081;-73
2021/12/30 10:36:38;;;;;;;25.90;9.90;;;9.40;99.90;;;;;;5018305;28;20082;-76
2021/12/30 10:39:25;;;;;;;29.98;10.70;;;9.90;99.90;;;;;;5007945;28;20097;-73
2021/12/30 10:42:16;;;;;;;29.75;10.35;;;9.50;99.90;;;;;;4994942;28;20034;-73
2021/12/30 10:44:55;;;;;;;24.60;9.32;;;9.90;99.90;;;;;;4997041;28;20109;-74
2021/12/30 10:47:24;;;;;;;23.05;9.88;;;9.80;99.90;;;;;;4986947;28;20026;-74
2021/12/30 10:50:04;;;;;;;21.55;9.43;;;9.90;99.90;;;;;;4991383;28;20018;-74
2021/12/30 10:52:30;;;;;;;31.60;10.05;;;9.80;99.90;;;;;;5002860;28;20041;-72
2021/12/30 10:54:56;;;;;;;30.33;11.68;;;9.80;99.90;;;;;;5000626;28;20478;-71
2021/12/30 10:57:30;;;;;;;25.98;9.13;;;9.80;99.90;;;;;;4993550;28;20112;-75
2021/12/30 10:59:56;;;;;;;29.17;9.95;;;9.80;99.90;;;;;;4992662;28;20026;-73
2021/12/30 11:02:24;;;;;;;27.27;11.18;;;9.80;99.90;;;;;;4989579;28;20392;-71
2021/12/30 11:05:03;;;;;;;25.58;10.32;;;9.70;99.90;;;;;;4991919;28;20022;-74
2021/12/30 11:07:51;;;;;;;20.85;9.32;;;9.70;99.90;;;;;;4991992;28;20109;-74
2021/12/30 11:10:28;;;;;;;19.02;9.02;;;9.70;99.90;;;;;;4991949;28;20033;-74
2021/12/30 11:12:54;;;;;;;23.50;9.82;;;;;;;;;;4998165;28;20026;-74
2021/12/30 11:15:21;;;;;;;26.85;10.48;;;9.70;99.90;;;;;;4995332;28;20031;-73
2021/12/30 11:17:48;;;;;;;33.65;9.88;;;9.60;99.90;;;;;;5006091;28;20045;-73
2021/12/30 11:20:17;;;;;;;32.13;10.98;;;9.70;99.90;;;;;;4993753;28;20017;-74
2021/12/30 11:22:43;;;;;;;20.42;10.05;;;9.80;99.90;;;;;;5000824;28;20065;-73
2021/12/30 11:25:12;;;;;;;38.70;11.85;;;9.60;99.90;;;;;;4996058;28;20057;-74
2021/12/30 11:27:39;;;;;;;16.88;10.18;;;9.90;99.90;;;;;;5005537;28;20026;-71
2021/12/30 11:30:15;;;;;;;27.23;11.27;;;9.50;99.90;;;;;;4994319;28;20132;-74
2021/12/30 11:32:46;;;;;;;31.08;10.60;;;12.70;99.90;;;;;;5000780;28;20109;-74
2021/12/30 11:35:12;;;;;;;24.83;10.25;;;;;;;;;;5003822;28;20414;-74
2021/12/30 11:37:38;;;;;;;29.98;10.68;;;9.90;99.90;;;;;;4992408;28;20500;-72
2021/12/30 11:40:10;;;;;;;28.90;10.43;;;10.10;99.90;;;;;;5004728;28;20029;-74
2021/12/30 11:42:39;;;;;;;28.90;11.18;;;10.40;99.90;;;;;;4993344;28;20022;-74
2021/12/30 11:45:40;;;;;;;32.58;10.50;;;10.00;99.90;;;;;;5002370;28;20018;-71
2021/12/30 11:48:27;;;;;;;25.67;10.52;;;10.30;99.90;;;;;;4992331;28;20022;-74
2021/12/30 11:51:11;;;;;;;28.90;9.43;;;10.30;99.90;;;;;;4991298;28;20452;-73
2021/12/30 11:53:39;;;;;;;26.25;10.30;;;10.00;99.90;;;;;;4990411;28;20392;-71
2021/12/30 11:56:25;;;;;;;19.23;10.23;;;10.00;99.90;;;;;;4991931;28;20050;-72
2021/12/30 11:58:55;;;;;;;27.67;11.32;;;9.90;99.90;;;;;;4989558;28;20114;-74
2021/12/30 12:01:21;;;;;;;33.08;11.50;;;9.90;99.90;;;;;;4990738;28;20068;-73
2021/12/30 12:03:53;;;;;;;23.50;11.15;;;9.80;99.90;;;;;;4990646;28;20070;-71
2021/12/30 12:06:27;;;;;;;33.55;13.15;;;9.60;99.90;;;;;;4990102;28;20325;-72
2021/12/30 12:09:14;;;;;;;31.50;12.38;;;9.60;99.90;;;;;;4999928;28;20037;-69
2021/12/30 12:12:09;;;;;;;44.97;12.40;;;12.40;99.90;;;;;;4994828;28;20029;-69
2021/12/30 12:14:44;;;;;;;29.43;12.20;;;9.70;99.90;;;;;;4965432;28;20475;-75
2021/12/30 12:17:17;;;;;;;34.35;12.10;;;10.00;99.90;;;;;;5003042;28;20098;-72
2021/12/30 12:19:49;;;;;;;32.55;12.68;;;9.70;99.90;;;;;;4991318;28;20033;-73
2021/12/30 12:22:17;;;;;;;37.83;14.25;;;9.70;99.90;;;;;;4993616;28;20053;-72
2021/12/30 12:24:44;;;;;;;23.50;12.13;;;9.70;99.90;;;;;;5004593;28;20470;-71
2021/12/30 12:27:18;;;;;;;25.75;10.65;;;9.70;99.90;;;;;;4994250;28;20034;-74
2021/12/30 12:29:44;;;;;;;33.25;12.48;;;9.80;99.90;;;;;;4989290;28;20037;-73
2021/12/30 12:32:29;;;;;;;31.90;12.43;;;9.80;99.90;;;;;;4990528;28;20033;-74
2021/12/30 12:34:56;;;;;;;37.08;13.45;;;;;;;;;;4987510;28;20035;-74
2021/12/30 12:37:33;;;;;;;34.45;12.38;;;9.80;99.90;;;;;;5002142;28;20197;-72
2021/12/30 12:40:15;;;;;;;40.45;12.23;;;9.80;99.90;;;;;;4988123;28;20551;-75
2021/12/30 12:42:50;;;;;;;32.30;11.82;;;9.90;99.90;;;;;;4999359;28;20025;-73
2021/12/30 12:45:20;;;;;;;46.05;11.48;;;9.80;99.90;;;;;;4998464;28;20097;-74
2021/12/30 12:47:48;;;;;;;27.30;11.73;;;9.80;99.90;;;;;;4990446;28;20423;-75
2021/12/30 12:50:14;;;;;;;35.30;12.98;;;;;;;;;;4986719;28;20078;-74
2021/12/30 12:52:47;;;;;;;18.85;11.73;;;9.80;99.90;;;;;;4993261;28;20405;-74
2021/12/30 12:55:17;;;;;;;29.27;10.90;;;9.90;99.90;;;;;;4993829;28;20116;-74
2021/12/30 12:57:43;;;;;;;30.35;12.77;;;9.60;99.90;;;;;;4992774;28;20042;-74
2021/12/30 13:00:11;;;;;;;33.92;11.70;;;9.70;99.90;;;;;;4990778;28;20088;-75
2021/12/30 13:02:36;;;;;;;32.80;13.07;;;9.70;99.90;;;;;;4998091;28;20052;-73
2021/12/30 13:05:15;;;;;;;35.83;11.77;;;9.70;99.90;;;;;;4991695;28;20030;-74
2021/12/30 13:07:41;;;;;;;23.27;12.65;;;9.50;99.90;;;;;;4990686;28;20031;-72